Time;durP1;ratioP1;P1;durP2;ratioP2;P2;SDS_P1;SDS_P2;PMS_P1;PMS_P2;Temp;Humidity;BMP_temperature;BMP_pressure;BME280_temperature;BME280_humidity;BME280_pressure;Samples;Min_cycle;Max_cycle;Signal;HPM_P1;HPM_P2
2023/12/30 00:03:03;;;;;;;;;;;13.50;57.40;;;11.91;58.59;100160.72;12249160;19;19929;-85
2023/12/30 00:07:05;;;;;;;;;;;13.40;57.00;;;11.81;58.60;100167.50;12255539;19;19952;-84
2023/12/30 00:11:06;;;;;;;;;;;13.30;57.00;;;11.78;58.37;100193.88;12254396;19;19931;-84
2023/12/30 00:15:08;;;;;;;;;;;13.10;57.00;;;11.71;58.58;100196.06;12251608;19;19915;-84
2023/12/30 00:19:11;;;;;;;;;;;13.00;57.00;;;11.56;58.58;100186.63;12254443;19;19921;-84
2023/12/30 00:23:13;;;;;;;;;;;12.90;57.00;;;11.60;58.43;100193.34;12252707;19;19938;-84
2023/12/30 00:27:14;;;;;;;;;;;12.80;57.10;;;11.63;58.57;100203.59;12254929;19;19930;-84
2023/12/30 00:31:24;;;;;;;;;;;12.80;57.20;;;11.61;58.55;100195.00;12252388;19;19931;-84
2023/12/30 00:35:26;;;;;;;;;;;12.70;57.30;;;11.61;58.42;100198.50;12253299;19;20160;-84
2023/12/30 00:39:27;;;;;;;;;;;12.70;57.40;;;11.54;58.45;100170.25;12253317;19;19923;-84
2023/12/30 00:43:29;;;;;;;;;;;12.70;57.40;;;11.62;58.37;100154.84;12250829;19;20338;-84
2023/12/30 00:47:30;;;;;;;;;;;12.70;57.50;;;11.63;58.42;100139.03;12253528;19;19907;-84
2023/12/30 00:51:32;;;;;;;;;;;12.70;57.50;;;11.46;58.43;100142.00;12251602;19;19927;-84
2023/12/30 00:55:34;;;;;;;;;;;12.80;57.60;;;11.59;58.30;100174.22;12253741;19;19914;-84
2023/12/30 00:59:36;;;;;;;;;;;12.70;57.60;;;11.66;58.39;100200.75;12251915;19;19915;-84
2023/12/30 01:03:39;;;;;;;;;;;12.80;57.60;;;11.64;58.39;100192.22;12246218;19;19935;-84
2023/12/30 01:07:41;;;;;;;;;;;12.80;57.70;;;11.43;58.57;100158.72;12249172;19;19919;-84
2023/12/30 01:11:42;;;;;;;;;;;12.80;57.70;;;11.66;58.44;100203.38;12246701;19;19932;-84
2023/12/30 01:15:44;;;;;;;;;;;12.80;57.70;;;11.68;58.54;100206.75;12247053;19;19926;-84
2023/12/30 01:19:46;;;;;;;;;;;12.80;57.60;;;11.54;58.65;100201.63;12249988;19;19919;-84
2023/12/30 01:23:48;;;;;;;;;;;12.80;57.70;;;11.59;58.64;100218.66;12247511;19;19922;-84
2023/12/30 01:27:50;;;;;;;;;;;12.80;57.60;;;11.46;58.52;100221.25;12248363;19;19940;-84
2023/12/30 01:31:51;;;;;;;;;;;12.70;57.60;;;11.41;58.67;100222.50;12247010;19;19927;-84
2023/12/30 01:35:54;;;;;;;;;;;12.70;57.60;;;11.28;58.46;100217.25;12248026;19;19922;-84
2023/12/30 01:39:55;;;;;;;;;;;12.70;57.70;;;11.46;58.61;100260.47;12247918;19;19927;-84
2023/12/30 01:43:57;;;;;;;;;;;12.70;57.70;;;11.36;58.62;100262.03;12245653;19;19922;-84
2023/12/30 01:47:59;;;;;;;;;;;12.60;57.70;;;11.34;58.59;100260.44;12246866;19;19975;-84
2023/12/30 01:52:02;;;;;;;;;;;12.60;57.80;;;11.39;58.72;100272.28;12246274;19;19922;-84
2023/12/30 01:56:04;;;;;;;;;;;12.60;57.70;;;11.15;58.68;100235.53;12246973;19;19926;-84
2023/12/30 02:00:06;;;;;;;;;;;12.60;57.70;;;11.32;58.90;100259.72;12245267;19;20346;-84
2023/12/30 02:04:13;;;;;;;;;;;12.60;57.70;;;11.11;58.76;100234.06;12244467;19;19919;-84
2023/12/30 02:08:15;;;;;;;;;;;12.50;57.70;;;11.34;58.74;100266.53;12248998;19;20432;-84
2023/12/30 02:12:17;;;;;;;;;;;12.50;57.70;;;11.28;58.76;100269.53;12246173;19;20321;-84
2023/12/30 02:16:19;;;;;;;;;;;12.50;57.70;;;11.24;58.77;100273.31;12240121;19;19914;-84
2023/12/30 02:20:20;;;;;;;;;;;12.50;57.70;;;11.02;58.77;100242.50;12246869;19;19919;-84
2023/12/30 02:24:22;;;;;;;;;;;12.50;57.70;;;11.20;58.84;100277.03;12243526;19;19937;-84
2023/12/30 02:28:24;;;;;;;;;;;12.50;57.80;;;11.25;58.72;100286.25;12246748;19;19918;-84
2023/12/30 02:32:25;;;;;;;;;;;12.50;57.80;;;11.25;58.61;100290.66;12244603;19;19927;-84
2023/12/30 02:36:27;;;;;;;;;;;12.50;57.80;;;11.07;58.82;100248.25;12246433;19;19986;-84
2023/12/30 02:40:28;;;;;;;;;;;12.50;57.70;;;11.18;58.72;100285.00;12245147;19;19927;-84
2023/12/30 02:44:30;;;;;;;;;;;12.40;57.60;;;11.24;58.80;100297.66;12242510;19;19914;-84
2023/12/30 02:48:31;;;;;;;;;;;12.40;57.60;;;11.20;58.84;100301.38;12243938;19;19951;-84
2023/12/30 02:52:33;;;;;;;;;;;12.40;57.60;;;11.20;58.82;100287.50;12244097;19;19911;-84
2023/12/30 02:56:35;;;;;;;;;;;12.40;57.50;;;11.14;58.62;100290.50;12245018;19;19927;-84
2023/12/30 03:00:36;;;;;;;;;;;12.40;57.50;;;11.17;58.66;100296.38;12244021;19;19928;-84
2023/12/30 03:04:38;;;;;;;;;;;12.40;57.50;;;11.09;58.53;100293.41;12240749;19;19907;-84
2023/12/30 03:08:40;;;;;;;;;;;12.40;57.50;;;11.16;58.62;100306.94;12245184;19;19925;-84
2023/12/30 03:12:42;;;;;;;;;;;12.40;57.40;;;11.12;58.80;100308.88;12243159;19;19946;-84
2023/12/30 03:16:43;;;;;;;;;;;12.30;57.40;;;11.13;58.63;100309.75;12244367;19;19919;-84
2023/12/30 03:20:45;;;;;;;;;;;12.30;57.40;;;11.05;58.85;100300.63;12243063;19;20323;-84
2023/12/30 03:24:47;;;;;;;;;;;12.30;57.30;;;11.03;58.58;100306.88;12241887;19;19914;-84
2023/12/30 03:28:48;;;;;;;;;;;12.30;57.40;;;11.02;58.61;100308.66;12256022;19;19956;-84
2023/12/30 03:32:51;;;;;;;;;;;12.40;57.40;;;10.99;58.78;100306.25;12252920;19;19978;-84
2023/12/30 03:36:53;;;;;;;;;;;12.30;57.70;;;11.02;58.77;100326.13;12254243;19;19926;-84
2023/12/30 03:40:57;;;;;;;;;;;12.20;57.30;;;10.90;58.85;100301.59;12253224;19;20249;-84
2023/12/30 03:44:58;;;;;;;;;;;12.20;57.30;;;10.87;58.75;100275.66;12249961;19;19922;-84
2023/12/30 03:49:00;;;;;;;;;;;12.20;57.30;;;10.87;58.71;100280.06;12253742;19;19919;-84
2023/12/30 03:53:02;;;;;;;;;;;12.10;57.30;;;10.77;58.75;100225.78;12253255;19;19918;-84
2023/12/30 03:57:04;;;;;;;;;;;12.20;57.40;;;10.91;58.82;100279.78;12253234;19;19915;-84
2023/12/30 04:01:06;;;;;;;;;;;12.10;57.30;;;10.73;58.71;100266.09;12253348;19;19919;-84
2023/12/30 04:05:07;;;;;;;;;;;12.10;57.30;;;10.86;58.96;100281.84;12249113;19;19972;-84
2023/12/30 04:09:09;;;;;;;;;;;12.10;57.30;;;10.82;58.92;100283.78;12254887;19;19923;-84
2023/12/30 04:13:11;;;;;;;;;;;12.10;57.30;;;10.86;58.77;100297.50;12252128;19;19967;-84
2023/12/30 04:17:12;;;;;;;;;;;12.10;57.30;;;10.61;58.73;100270.31;12253916;19;20503;-84
2023/12/30 04:21:14;;;;;;;;;;;12.10;57.30;;;10.72;58.80;100303.59;12251681;19;20263;-84
2023/12/30 04:25:16;;;;;;;;;;;12.00;57.20;;;10.75;58.91;100302.56;12253707;19;20630;-84
2023/12/30 04:29:18;;;;;;;;;;;12.00;57.20;;;10.71;58.76;100314.97;12252249;19;19982;-84
2023/12/30 04:33:20;;;;;;;;;;;12.00;57.20;;;10.69;58.92;100324.66;12250351;19;19923;-84
2023/12/30 04:37:22;;;;;;;;;;;11.90;57.10;;;10.62;59.04;100321.59;12252493;19;20244;-84
2023/12/30 04:41:24;;;;;;;;;;;11.90;57.10;;;10.61;58.96;100333.00;12249153;19;19914;-84
2023/12/30 04:45:26;;;;;;;;;;;11.90;57.10;;;10.56;58.80;100323.78;12252193;19;19922;-84
2023/12/30 04:49:27;;;;;;;;;;;11.90;57.10;;;10.58;58.99;100335.75;12251021;19;19919;-84
2023/12/30 04:53:29;;;;;;;;;;;11.80;57.00;;;10.58;58.95;100353.22;12249112;19;19940;-84
2023/12/30 04:57:32;;;;;;;;;;;11.80;57.00;;;10.51;58.91;100350.16;12250736;19;19926;-84
2023/12/30 05:01:34;;;;;;;;;;;11.80;57.00;;;10.41;58.75;100352.47;12248739;19;20249;-84
2023/12/30 05:05:36;;;;;;;;;;;11.80;57.00;;;10.40;58.76;100358.63;12250434;19;19918;-84
2023/12/30 05:09:37;;;;;;;;;;;11.70;57.00;;;10.40;58.87;100369.06;12252635;19;19922;-84
2023/12/30 05:13:39;;;;;;;;;;;11.60;56.90;;;10.42;58.82;100392.44;12248816;19;19919;-84
2023/12/30 05:17:41;;;;;;;;;;;11.60;56.90;;;10.36;58.78;100392.81;12250312;19;20329;-84
2023/12/30 05:21:43;;;;;;;;;;;11.70;56.90;;;10.33;59.00;100400.84;12249175;19;20352;-83
2023/12/30 05:25:45;;;;;;;;;;;11.60;56.80;;;10.31;58.72;100411.38;12250625;19;19934;-83
2023/12/30 05:29:46;;;;;;;;;;;11.60;56.80;;;10.09;58.87;100393.50;12250915;19;20603;-84
2023/12/30 05:33:48;;;;;;;;;;;11.50;56.70;;;9.91;58.91;100374.56;12247563;19;20283;-83
2023/12/30 05:37:51;;;;;;;;;;;11.50;56.60;;;10.20;58.85;100427.63;12251148;19;19926;-84
2023/12/30 05:41:52;;;;;;;;;;;11.50;56.60;;;10.18;58.93;100423.44;12248441;19;19930;-84
2023/12/30 05:45:54;;;;;;;;;;;11.50;56.70;;;10.10;58.92;100410.84;12249997;19;20283;-84
2023/12/30 05:49:56;;;;;;;;;;;11.40;56.60;;;10.14;58.92;100427.97;12246962;19;19911;-84
2023/12/30 05:53:57;;;;;;;;;;;11.40;56.60;;;9.87;58.90;100393.91;12248038;19;20271;-84
2023/12/30 05:58:03;;;;;;;;;;;11.40;56.50;;;10.07;58.78;100446.69;12243469;19;21314;-84
2023/12/30 06:02:05;;;;;;;;;;;11.40;56.50;;;10.07;58.95;100464.94;12247322;19;19919;-84
2023/12/30 06:06:06;;;;;;;;;;;11.40;56.50;;;10.06;58.86;100478.94;12246970;19;19918;-85
2023/12/30 06:10:08;;;;;;;;;;;11.30;56.50;;;9.86;58.97;100454.00;12246181;19;20393;-85
2023/12/30 06:14:10;;;;;;;;;;;11.30;56.50;;;9.97;58.98;100475.91;12243169;19;19915;-85
2023/12/30 06:18:12;;;;;;;;;;;11.30;56.50;;;9.91;58.82;100484.09;12247132;19;20255;-84
2023/12/30 06:22:14;;;;;;;;;;;11.20;56.40;;;9.75;58.80;100465.84;12245013;19;19918;-84
2023/12/30 06:26:15;;;;;;;;;;;11.20;56.50;;;9.91;58.70;100506.72;12246325;19;19931;-84
2023/12/30 06:30:17;;;;;;;;;;;11.20;56.40;;;9.61;58.83;100476.19;12246833;19;19929;-84
2023/12/30 06:34:18;;;;;;;;;;;11.20;56.50;;;9.74;58.76;100494.63;12243514;19;19919;-84
2023/12/30 06:38:20;;;;;;;;;;;11.10;56.40;;;9.76;58.72;100516.25;12245951;19;19925;-84
2023/12/30 06:42:21;;;;;;;;;;;11.10;56.40;;;9.78;58.84;100524.00;12243842;19;19978;-84
2023/12/30 06:46:22;;;;;;;;;;;11.10;56.40;;;9.79;58.69;100530.88;12246303;19;19919;-83
2023/12/30 06:50:24;;;;;;;;;;;11.10;56.40;;;9.76;58.69;100534.50;12247043;19;20337;-83
2023/12/30 06:54:25;;;;;;;;;;;11.00;56.40;;;9.68;58.84;100524.47;12243722;19;19919;-83
2023/12/30 06:58:28;;;;;;;;;;;11.00;56.40;;;9.58;58.73;100531.09;12246535;19;19911;-84
2023/12/30 07:02:30;;;;;;;;;;;11.00;56.40;;;9.71;58.83;100560.81;12249216;19;19943;-84
2023/12/30 07:06:31;;;;;;;;;;;11.00;56.40;;;9.53;58.75;100533.13;12258990;19;20291;-85
2023/12/30 07:10:32;;;;;;;;;;;10.90;56.40;;;9.61;58.85;100554.41;12258554;19;19939;-84
2023/12/30 07:14:37;;;;;;;;;;;10.90;56.40;;;9.39;58.77;100544.28;12254881;19;19919;-83
2023/12/30 07:18:39;;;;;;;;;;;10.90;56.40;;;9.35;58.68;100549.78;12259085;19;20642;-84
2023/12/30 07:22:41;;;;;;;;;;;10.80;56.30;;;9.44;58.61;100583.97;12253743;19;19907;-83
2023/12/30 07:26:42;;;;;;;;;;;10.80;56.30;;;9.45;58.41;100600.47;12258617;19;19914;-84
2023/12/30 07:30:44;;;;;;;;;;;10.80;56.30;;;9.52;58.61;100622.69;12255877;19;19919;-82
2023/12/30 07:34:45;;;;;;;;;;;10.80;56.40;;;9.47;58.83;100624.69;12253153;19;19943;-84
2023/12/30 07:38:47;;;;;;;;;;;10.70;56.30;;;9.49;58.74;100630.66;12261385;19;19919;-84
2023/12/30 07:42:49;;;;;;;;;;;10.70;56.30;;;9.47;58.70;100624.69;12253704;19;19914;-83
2023/12/30 07:46:50;;;;;;;;;;;10.70;56.30;;;9.39;58.75;100630.28;12254322;19;19921;-83
2023/12/30 07:50:52;;;;;;;;;;;10.70;56.40;;;9.44;58.66;100636.13;12256239;19;19982;-82
2023/12/30 07:54:53;;;;;;;;;;;10.70;56.30;;;9.26;58.60;100622.28;12252089;19;19915;-82
2023/12/30 07:58:55;;;;;;;;;;;10.70;56.40;;;9.41;58.72;100653.69;12255823;19;19921;-83
2023/12/30 08:02:56;;;;;;;;;;;10.60;56.30;;;9.39;58.61;100652.91;12249932;19;19938;-83
2023/12/30 08:06:58;;;;;;;;;;;10.70;56.40;;;9.23;58.81;100639.81;12255506;19;19923;-83
2023/12/30 08:10:59;;;;;;;;;;;10.60;56.30;;;9.36;58.75;100668.72;12255691;19;19942;-83
2023/12/30 08:15:01;;;;;;;;;;;10.60;56.40;;;9.06;58.73;100625.88;12249151;19;20272;-84
2023/12/30 08:19:03;;;;;;;;;;;10.60;56.40;;;9.22;58.85;100665.03;12257187;19;19915;-83
2023/12/30 08:23:04;;;;;;;;;;;10.60;56.40;;;9.03;58.64;100641.69;12251963;19;19933;-83
2023/12/30 08:27:06;;;;;;;;;;;10.60;56.40;;;9.17;58.88;100671.41;12256921;19;19995;-84
2023/12/30 08:31:07;;;;;;;;;;;10.50;56.40;;;9.15;58.62;100668.84;12248990;19;20253;-83
2023/12/30 08:35:10;;;;;;;;;;;10.50;56.40;;;9.20;58.87;100689.47;12236584;19;19998;-83
2023/12/30 08:39:12;;;;;;;;;;;10.70;56.50;;;9.16;58.65;100686.19;12248999;19;20301;-83
2023/12/30 08:43:13;;;;;;;;;;;10.50;56.40;;;8.97;58.81;100651.56;12241968;19;19930;-83
2023/12/30 08:47:15;;;;;;;;;;;10.50;56.40;;;9.16;58.78;100696.63;12252104;19;19923;-83
2023/12/30 08:51:17;;;;;;;;;;;10.50;56.40;;;9.19;58.79;100701.66;12235996;19;19914;-84
2023/12/30 08:55:18;;;;;;;;;;;10.40;56.40;;;9.03;58.82;100680.75;12247688;19;20346;-84
2023/12/30 08:59:24;;;;;;;;;;;10.40;56.40;;;8.89;58.83;100669.34;12247092;19;19915;-85
2023/12/30 09:03:26;;;;;;;;;;;10.50;56.40;;;9.08;58.85;100711.78;12243106;19;19936;-83
2023/12/30 09:07:27;;;;;;;;;;;10.40;56.40;;;8.81;58.70;100667.09;12245803;19;19921;-84
2023/12/30 09:11:29;;;;;;;;;;;10.40;56.40;;;9.17;58.77;100729.56;12245668;19;20278;-84
2023/12/30 09:15:30;;;;;;;;;;;10.40;56.50;;;9.18;58.87;100731.25;12243404;19;19946;-83
2023/12/30 09:19:31;;;;;;;;;;;10.70;56.60;;;9.19;58.73;100732.09;12251320;19;19914;-83
2023/12/30 09:23:33;;;;;;;;;;;10.50;56.50;;;9.15;58.72;100722.72;12247254;19;19927;-83
2023/12/30 09:27:35;;;;;;;;;;;10.50;56.50;;;9.18;58.98;100739.06;12244341;19;19939;-85
2023/12/30 09:31:37;;;;;;;;;;;10.50;56.50;;;9.17;58.76;100742.59;12245410;19;19911;-84
2023/12/30 09:35:38;;;;;;;;;;;10.50;56.50;;;9.16;58.82;100740.91;12243026;19;19918;-83
2023/12/30 09:39:43;;;;;;;;;;;10.50;56.50;;;9.23;58.99;100751.84;12239535;19;20274;-83
2023/12/30 09:43:45;;;;;;;;;;;10.60;56.50;;;9.26;58.61;100752.56;12244549;19;19926;-83
2023/12/30 09:47:47;;;;;;;;;;;10.60;56.50;;;9.31;58.95;100766.19;12235015;19;19943;-83
2023/12/30 09:51:49;;;;;;;;;;;10.60;56.40;;;9.27;58.94;100761.22;12237387;19;20330;-82
2023/12/30 09:55:52;;;;;;;;;;;10.60;56.40;;;9.36;58.81;100778.16;12237116;19;19996;-83
2023/12/30 09:59:54;;;;;;;;;;;10.70;56.50;;;9.37;58.88;100779.84;12242223;19;20236;-83
2023/12/30 10:03:56;;;;;;;;;;;10.70;56.40;;;9.16;59.00;100743.50;12243670;19;19915;-84
2023/12/30 10:07:57;;;;;;;;;;;10.70;56.40;;;9.40;58.85;100784.94;12240735;19;20327;-84
2023/12/30 10:11:59;;;;;;;;;;;10.70;56.40;;;9.37;58.87;100785.91;12240496;19;19922;-83
2023/12/30 10:16:02;;;;;;;;;;;10.80;56.40;;;9.35;58.89;100776.50;12239882;19;19926;-85
2023/12/30 10:20:04;;;;;;;;;;;10.80;56.40;;;9.38;58.93;100771.13;12241993;19;19926;-85
2023/12/30 10:24:06;;;;;;;;;;;10.80;56.40;;;9.47;59.00;100788.91;12243539;19;19938;-83
2023/12/30 10:28:08;;;;;;;;;;;10.90;56.40;;;9.55;58.92;100805.00;12243183;19;19935;-82
2023/12/30 10:32:11;;;;;;;;;;;10.90;56.40;;;9.50;59.05;100791.34;12242042;19;20411;-82
2023/12/30 10:36:13;;;;;;;;;;;10.90;56.40;;;9.59;58.77;100810.94;12237727;19;20254;-83
2023/12/30 10:40:15;;;;;;;;;;;10.90;56.40;;;9.60;58.83;100803.00;12241429;19;20341;-83
2023/12/30 10:44:17;;;;;;;;;;;11.00;56.40;;;9.65;59.00;100805.41;12240265;19;19990;-83
2023/12/30 10:48:19;;;;;;;;;;;11.00;56.40;;;9.50;58.83;100779.19;12239477;19;19926;-83
2023/12/30 10:52:23;;;;;;;;;;;11.00;56.50;;;9.78;59.02;100826.50;12240249;19;19952;-84
2023/12/30 10:56:27;;;;;;;;;;;11.10;56.50;;;9.77;59.02;100825.63;12241842;19;19917;-84
2023/12/30 11:00:34;;;;;;;;;;;11.10;56.40;;;9.73;59.04;100811.06;12239758;19;19932;-83
2023/12/30 11:04:36;;;;;;;;;;;11.20;56.50;;;9.75;59.11;100811.84;12241458;19;20345;-83
2023/12/30 11:08:41;;;;;;;;;;;11.20;56.50;;;9.92;59.04;100829.25;12234464;19;19932;-83
2023/12/30 11:12:44;;;;;;;;;;;11.30;56.50;;;9.92;59.06;100826.63;12240485;19;19926;-83
2023/12/30 11:16:46;;;;;;;;;;;11.30;56.50;;;9.86;58.86;100809.53;12237421;19;20345;-83
2023/12/30 11:20:48;;;;;;;;;;;11.30;56.50;;;9.96;59.07;100834.22;12237234;19;19951;-83
2023/12/30 11:24:50;;;;;;;;;;;11.30;56.40;;;10.05;59.06;100840.75;12240571;19;19929;-83
2023/12/30 11:28:51;;;;;;;;;;;11.40;56.40;;;9.86;58.96;100793.03;12238338;19;19926;-83
2023/12/30 11:32:55;;;;;;;;;;;11.40;56.40;;;10.10;59.01;100815.25;12239949;19;19919;-83
2023/12/30 11:36:58;;;;;;;;;;;11.40;56.40;;;10.12;58.84;100815.16;12237948;19;20366;-83
2023/12/30 11:41:02;;;;;;;;;;;11.50;56.30;;;10.11;59.07;100803.88;12237681;19;19919;-82
2023/12/30 11:45:05;;;;;;;;;;;11.50;56.20;;;10.10;59.02;100783.06;12238022;19;19915;-82
2023/12/30 11:49:07;;;;;;;;;;;11.50;56.20;;;10.08;58.96;100790.16;12243004;19;19922;-82
2023/12/30 11:53:09;;;;;;;;;;;11.60;56.20;;;10.19;59.00;100806.09;12250154;19;19929;-82
2023/12/30 11:57:10;;;;;;;;;;;11.60;56.10;;;10.21;58.85;100799.03;12249190;19;20322;-82
2023/12/30 12:01:12;;;;;;;;;;;11.60;56.00;;;10.26;58.92;100804.00;12245961;19;19915;-83
2023/12/30 12:05:14;;;;;;;;;;;11.60;56.00;;;10.23;58.92;100791.13;12251845;19;19986;-82
2023/12/30 12:09:16;;;;;;;;;;;11.70;56.00;;;10.32;58.93;100801.97;12245635;19;20286;-83
2023/12/30 12:13:21;;;;;;;;;;;11.70;56.00;;;10.30;58.90;100782.91;12250388;19;20009;-85
2023/12/30 12:17:23;;;;;;;;;;;11.70;56.10;;;10.11;58.76;100756.09;12247526;19;20322;-83
2023/12/30 12:21:25;;;;;;;;;;;11.70;56.10;;;10.26;58.80;100781.38;12249361;19;20318;-85
2023/12/30 12:25:28;;;;;;;;;;;11.80;56.00;;;10.19;58.91;100769.56;12250607;19;19925;-82
2023/12/30 12:29:29;;;;;;;;;;;11.80;56.00;;;10.23;58.95;100772.84;12248121;19;19918;-83
2023/12/30 12:33:34;;;;;;;;;;;11.80;56.00;;;10.39;58.95;100792.84;12249678;19;19926;-84
2023/12/30 12:37:36;;;;;;;;;;;11.70;55.90;;;10.28;58.87;100765.66;12253385;19;20346;-83
2023/12/30 12:41:38;;;;;;;;;;;11.80;56.00;;;10.49;58.80;100800.22;12245394;19;19934;-83
2023/12/30 12:45:40;;;;;;;;;;;11.90;56.00;;;10.53;58.98;100792.16;12246981;19;19978;-83
2023/12/30 12:49:42;;;;;;;;;;;11.90;56.00;;;10.47;58.96;100776.78;12244352;19;19919;-86
2023/12/30 12:53:43;;;;;;;;;;;11.90;56.00;;;10.46;58.88;100789.94;12246917;19;19919;-84
2023/12/30 12:57:45;;;;;;;;;;;11.90;56.00;;;10.27;58.89;100750.91;12241077;19;19939;-86
2023/12/30 13:01:47;;;;;;;;;;;12.00;55.90;;;10.51;58.82;100796.59;12242128;19;19923;-84
2023/12/30 13:05:48;;;;;;;;;;;12.00;55.90;;;10.60;58.85;100809.16;12245878;19;19929;-84
2023/12/30 13:10:09;;;;;;;;;;;12.00;55.90;;;10.60;58.69;100814.38;12248268;19;20350;-84
2023/12/30 13:14:11;;;;;;;;;;;12.00;55.90;;;10.56;58.86;100810.25;12246841;19;19927;-84
2023/12/30 13:18:17;;;;;;;;;;;12.00;55.90;;;10.60;58.84;100813.53;12244301;19;19915;-84
2023/12/30 13:22:20;;;;;;;;;;;12.00;55.90;;;10.60;58.95;100811.75;12243627;19;19935;-84
2023/12/30 13:26:22;;;;;;;;;;;12.00;55.90;;;10.59;58.78;100809.25;12245429;19;19926;-84
2023/12/30 13:30:23;;;;;;;;;;;12.00;55.90;;;10.70;58.79;100822.56;12244706;19;19911;-84
2023/12/30 13:34:28;;;;;;;;;;;12.00;55.70;;;10.71;58.83;100823.41;12237945;19;19974;-84
2023/12/30 13:38:35;;;;;;;;;;;12.10;55.80;;;10.64;58.86;100817.69;12243368;19;19911;-84
2023/12/30 13:42:36;;;;;;;;;;;12.00;55.70;;;10.69;58.72;100835.69;12241812;19;20337;-85
2023/12/30 13:50:49;;;;;;;;;;;12.10;55.80;;;10.65;58.64;100829.81;12243978;19;19915;-84
2023/12/30 13:54:50;;;;;;;;;;;12.00;55.80;;;10.63;58.70;100835.09;12247279;19;19910;-84
2023/12/30 13:58:52;;;;;;;;;;;12.00;55.80;;;10.68;58.62;100837.47;12246346;19;19935;-84
2023/12/30 14:02:54;;;;;;;;;;;12.00;55.70;;;10.61;58.63;100836.09;12243721;19;19922;-84
2023/12/30 14:06:58;;;;;;;;;;;12.00;55.70;;;10.43;58.71;100797.94;12244135;19;19923;-84
2023/12/30 14:11:06;;;;;;;;;;;12.10;55.80;;;10.68;58.74;100854.91;12240196;19;19926;-84
2023/12/30 14:15:12;;;;;;;;;;;12.00;55.70;;;10.67;58.56;100848.84;12246379;19;19911;-84
2023/12/30 14:19:16;;;;;;;;;;;12.00;55.60;;;10.61;58.59;100850.03;12243636;19;19919;-84
2023/12/30 14:23:18;;;;;;;;;;;12.00;55.70;;;10.70;58.69;100869.56;12240295;19;19970;-84
2023/12/30 14:27:20;;;;;;;;;;;12.00;55.70;;;10.62;58.56;100856.91;12241927;19;19926;-84
2023/12/30 14:31:22;;;;;;;;;;;12.00;55.80;;;10.62;58.58;100862.13;12242715;19;19915;-84
2023/12/30 14:35:24;;;;;;;;;;;12.00;55.70;;;10.63;58.56;100870.81;12238781;19;19934;-84
2023/12/30 14:39:25;;;;;;;;;;;12.00;55.70;;;10.66;58.35;100869.81;12240881;19;19923;-85
2023/12/30 14:43:27;;;;;;;;;;;11.90;55.70;;;10.61;58.48;100873.53;12240846;19;19925;-84
2023/12/30 14:47:28;;;;;;;;;;;11.90;55.60;;;10.57;58.58;100868.53;12239864;19;19911;-84
2023/12/30 14:51:30;;;;;;;;;;;11.90;55.70;;;10.61;58.31;100881.34;12239315;19;20298;-84
2023/12/30 14:55:32;;;;;;;;;;;11.90;55.70;;;10.58;58.33;100876.28;12243898;19;19922;-84
2023/12/30 14:59:34;;;;;;;;;;;11.90;55.70;;;10.48;58.20;100871.66;12241536;19;19926;-84
2023/12/30 15:03:35;;;;;;;;;;;11.80;55.70;;;10.26;58.26;100838.78;12237705;19;19907;-84
2023/12/30 15:07:38;;;;;;;;;;;11.80;55.70;;;10.04;58.40;100812.94;12240413;19;19919;-84
2023/12/30 15:11:40;;;;;;;;;;;11.80;55.60;;;10.43;58.33;100886.69;12239209;19;19915;-84
2023/12/30 15:15:41;;;;;;;;;;;11.70;55.60;;;10.41;58.28;100895.44;12240255;19;20243;-84
2023/12/30 15:19:43;;;;;;;;;;;11.70;55.90;;;10.14;58.41;100855.06;12241940;19;19944;-84
2023/12/30 15:23:44;;;;;;;;;;;11.60;55.60;;;10.34;58.20;100903.66;12243119;19;19923;-85
2023/12/30 15:27:51;;;;;;;;;;;11.60;55.60;;;10.32;58.28;100915.97;12249437;19;20007;-84
2023/12/30 15:31:52;;;;;;;;;;;11.60;55.60;;;10.22;58.31;100914.72;12253034;19;20347;-84
2023/12/30 15:35:54;;;;;;;;;;;11.60;55.60;;;10.27;58.19;100929.25;12248860;19;19923;-84
2023/12/30 15:39:55;;;;;;;;;;;11.50;55.60;;;10.19;58.19;100932.19;12253342;19;19921;-84
2023/12/30 15:43:57;;;;;;;;;;;11.40;55.50;;;10.10;58.28;100921.38;12245313;19;19918;-84
2023/12/30 15:47:58;;;;;;;;;;;11.40;55.50;;;10.10;58.17;100929.19;12244149;19;19910;-84
2023/12/30 15:52:00;;;;;;;;;;;11.40;55.50;;;9.89;58.21;100910.25;12251143;19;19940;-84
2023/12/30 15:56:02;;;;;;;;;;;11.30;55.50;;;9.91;58.27;100924.91;12249422;19;20362;-84
2023/12/30 16:00:08;;;;;;;;;;;11.20;55.50;;;9.79;58.18;100914.22;12242987;19;19926;-84
2023/12/30 16:04:10;;;;;;;;;;;11.20;55.50;;;9.84;58.20;100946.16;12246247;19;19919;-84
2023/12/30 16:08:11;;;;;;;;;;;11.10;55.50;;;9.78;58.04;100938.63;12243437;19;19923;-84
2023/12/30 16:12:13;;;;;;;;;;;11.20;55.60;;;9.79;58.06;100945.53;12243626;19;19944;-84
2023/12/30 16:16:15;;;;;;;;;;;11.00;55.50;;;9.72;58.06;100952.78;12242300;19;19918;-84
2023/12/30 16:20:16;;;;;;;;;;;11.00;55.60;;;9.53;58.24;100921.53;12244417;19;19922;-84
2023/12/30 16:24:17;;;;;;;;;;;10.90;55.50;;;9.43;57.97;100915.94;12239045;19;20369;-84
2023/12/30 16:28:19;;;;;;;;;;;10.90;55.50;;;9.58;58.04;100942.19;12236488;19;20357;-85
2023/12/30 16:32:20;;;;;;;;;;;10.90;55.60;;;9.53;57.93;100947.59;12242225;19;19906;-84
2023/12/30 16:36:24;;;;;;;;;;;10.80;55.50;;;9.36;57.83;100932.75;12240505;19;19923;-84
2023/12/30 16:40:27;;;;;;;;;;;10.70;55.30;;;9.30;57.76;100952.13;12242254;19;20262;-84
2023/12/30 16:44:29;;;;;;;;;;;10.60;55.20;;;9.15;57.71;100954.59;12242356;19;19922;-84
2023/12/30 16:48:30;;;;;;;;;;;10.50;55.10;;;9.04;57.84;100955.09;12240926;19;20275;-84
2023/12/30 16:52:33;;;;;;;;;;;10.20;55.00;;;8.82;57.97;100942.19;12242602;19;19933;-84
2023/12/30 16:56:35;;;;;;;;;;;10.30;55.20;;;8.95;57.99;100969.38;12241088;19;19922;-84
2023/12/30 17:00:36;;;;;;;;;;;10.20;55.30;;;8.88;58.02;100962.72;12240774;19;20002;-84
2023/12/30 17:04:37;;;;;;;;;;;10.10;55.30;;;8.89;57.76;100979.22;12243884;19;19915;-84
2023/12/30 17:08:40;;;;;;;;;;;10.10;55.30;;;8.75;57.74;100965.06;12238404;19;20438;-84
2023/12/30 17:12:42;;;;;;;;;;;10.00;55.20;;;8.77;57.65;100983.19;12244743;19;19914;-84
2023/12/30 17:16:44;;;;;;;;;;;10.00;55.20;;;8.66;57.80;100986.25;12240996;19;19918;-84
2023/12/30 17:20:46;;;;;;;;;;;9.90;55.20;;;8.60;57.83;100992.59;12239098;19;19934;-86
2023/12/30 17:24:48;;;;;;;;;;;9.80;55.10;;;8.50;57.85;100982.63;12234208;19;20481;-84
2023/12/30 17:28:49;;;;;;;;;;;9.90;55.20;;;8.49;57.91;100999.16;12243637;19;19919;-84
2023/12/30 17:32:51;;;;;;;;;;;9.70;55.20;;;8.45;58.02;100993.22;12251648;19;19911;-84
2023/12/30 17:36:52;;;;;;;;;;;9.70;55.30;;;8.44;57.93;100998.50;12249183;19;19974;-84
2023/12/30 17:40:53;;;;;;;;;;;9.60;55.30;;;8.34;57.85;100983.22;12250550;19;19921;-84
2023/12/30 17:44:55;;;;;;;;;;;9.60;55.40;;;8.41;57.92;100997.72;12250408;19;19915;-84
2023/12/30 17:48:56;;;;;;;;;;;9.60;55.40;;;8.38;57.86;100992.63;12252653;19;19936;-84
2023/12/30 17:52:57;;;;;;;;;;;9.60;55.40;;;8.34;57.97;100992.78;12249874;19;19913;-84
2023/12/30 17:56:59;;;;;;;;;;;9.60;55.50;;;8.19;57.88;100968.28;12248265;19;19958;-85
2023/12/30 18:01:00;;;;;;;;;;;9.50;55.40;;;8.23;57.89;100989.78;12250248;19;19923;-85
2023/12/30 18:05:02;;;;;;;;;;;9.50;55.30;;;8.08;57.86;100965.28;12248124;19;19923;-84
2023/12/30 18:09:06;;;;;;;;;;;9.50;55.30;;;8.02;57.86;100975.91;12250881;19;19914;-84
2023/12/30 18:13:08;;;;;;;;;;;9.40;55.10;;;7.96;57.64;100979.59;12246752;19;19907;-85
2023/12/30 18:17:12;;;;;;;;;;;9.30;55.10;;;7.98;57.98;100996.84;12246845;19;19915;-84